sensor_id;sensor_type;location;lat;lon;timestamp;temperature;humidity
44517;DHT22;30223;17.182;-96.766;2023-05-29T00:01:50;28.20;39.20
44517;DHT22;30223;17.182;-96.766;2023-05-29T00:04:18;28.20;39.00
44517;DHT22;30223;17.182;-96.766;2023-05-29T00:06:47;28.20;38.80
44517;DHT22;30223;17.182;-96.766;2023-05-29T00:09:14;28.10;38.70
44517;DHT22;30223;17.182;-96.766;2023-05-29T00:11:41;28.10;38.40
44517;DHT22;30223;17.182;-96.766;2023-05-29T00:14:08;28.10;38.10
44517;DHT22;30223;17.182;-96.766;2023-05-29T00:16:39;28.10;38.20
44517;DHT22;30223;17.182;-96.766;2023-05-29T00:19:05;28.10;38.60
44517;DHT22;30223;17.182;-96.766;2023-05-29T00:21:32;28.20;38.50
44517;DHT22;30223;17.182;-96.766;2023-05-29T00:23:59;28.10;38.00
44517;DHT22;30223;17.182;-96.766;2023-05-29T00:26:26;28.10;37.70
44517;DHT22;30223;17.182;-96.766;2023-05-29T00:28:52;28.10;37.50
44517;DHT22;30223;17.182;-96.766;2023-05-29T00:31:19;28.10;37.10
44517;DHT22;30223;17.182;-96.766;2023-05-29T00:33:46;28.00;37.20
44517;DHT22;30223;17.182;-96.766;2023-05-29T00:36:13;28.00;36.80
44517;DHT22;30223;17.182;-96.766;2023-05-29T00:38:39;28.00;42.60
44517;DHT22;30223;17.182;-96.766;2023-05-29T00:41:06;28.10;38.50
44517;DHT22;30223;17.182;-96.766;2023-05-29T00:43:33;28.00;38.00
44517;DHT22;30223;17.182;-96.766;2023-05-29T00:46:00;28.00;37.70
44517;DHT22;30223;17.182;-96.766;2023-05-29T00:48:27;28.00;37.30
44517;DHT22;30223;17.182;-96.766;2023-05-29T00:50:54;28.00;37.20
44517;DHT22;30223;17.182;-96.766;2023-05-29T00:53:21;28.00;36.70
44517;DHT22;30223;17.182;-96.766;2023-05-29T00:55:49;28.00;36.60
44517;DHT22;30223;17.182;-96.766;2023-05-29T00:58:16;27.90;36.30
44517;DHT22;30223;17.182;-96.766;2023-05-29T01:00:43;27.90;35.90
44517;DHT22;30223;17.182;-96.766;2023-05-29T01:03:10;27.90;36.30
44517;DHT22;30223;17.182;-96.766;2023-05-29T01:05:40;27.90;36.50
44517;DHT22;30223;17.182;-96.766;2023-05-29T01:08:07;27.90;36.50
44517;DHT22;30223;17.182;-96.766;2023-05-29T01:10:35;27.80;36.50
44517;DHT22;30223;17.182;-96.766;2023-05-29T01:13:09;27.80;35.90
44517;DHT22;30223;17.182;-96.766;2023-05-29T01:16:01;27.80;35.80
44517;DHT22;30223;17.182;-96.766;2023-05-29T01:18:51;27.80;36.60
44517;DHT22;30223;17.182;-96.766;2023-05-29T01:29:14;27.80;36.50
44517;DHT22;30223;17.182;-96.766;2023-05-29T01:31:43;27.80;36.60
44517;DHT22;30223;17.182;-96.766;2023-05-29T01:34:10;27.80;36.80
44517;DHT22;30223;17.182;-96.766;2023-05-29T01:36:37;27.70;36.30
44517;DHT22;30223;17.182;-96.766;2023-05-29T01:39:04;27.70;36.70
44517;DHT22;30223;17.182;-96.766;2023-05-29T01:41:32;27.70;37.00
44517;DHT22;30223;17.182;-96.766;2023-05-29T01:44:01;27.70;37.40
44517;DHT22;30223;17.182;-96.766;2023-05-29T01:46:29;27.70;37.60
44517;DHT22;30223;17.182;-96.766;2023-05-29T01:48:56;27.70;38.10
44517;DHT22;30223;17.182;-96.766;2023-05-29T01:51:23;27.70;38.20
44517;DHT22;30223;17.182;-96.766;2023-05-29T01:53:50;27.70;38.60
44517;DHT22;30223;17.182;-96.766;2023-05-29T01:56:17;27.70;39.10
44517;DHT22;30223;17.182;-96.766;2023-05-29T01:58:44;27.70;39.00
44517;DHT22;30223;17.182;-96.766;2023-05-29T02:01:12;27.70;39.60
44517;DHT22;30223;17.182;-96.766;2023-05-29T02:03:39;27.70;39.70
44517;DHT22;30223;17.182;-96.766;2023-05-29T02:06:05;27.70;40.00
44517;DHT22;30223;17.182;-96.766;2023-05-29T02:08:32;27.70;40.10
44517;DHT22;30223;17.182;-96.766;2023-05-29T02:10:59;27.70;40.20
44517;DHT22;30223;17.182;-96.766;2023-05-29T02:13:26;27.70;40.40
44517;DHT22;30223;17.182;-96.766;2023-05-29T02:15:53;27.70;40.50
44517;DHT22;30223;17.182;-96.766;2023-05-29T02:18:20;27.60;40.60
44517;DHT22;30223;17.182;-96.766;2023-05-29T02:20:48;27.70;40.70
44517;DHT22;30223;17.182;-96.766;2023-05-29T02:23:15;27.60;40.70
44517;DHT22;30223;17.182;-96.766;2023-05-29T02:25:42;27.60;40.80
44517;DHT22;30223;17.182;-96.766;2023-05-29T02:28:08;27.60;41.00
44517;DHT22;30223;17.182;-96.766;2023-05-29T02:30:36;27.60;41.10
44517;DHT22;30223;17.182;-96.766;2023-05-29T02:33:02;27.60;41.30
44517;DHT22;30223;17.182;-96.766;2023-05-29T02:35:29;27.60;41.50
44517;DHT22;30223;17.182;-96.766;2023-05-29T02:37:56;27.60;41.60
44517;DHT22;30223;17.182;-96.766;2023-05-29T02:40:23;27.60;41.70
44517;DHT22;30223;17.182;-96.766;2023-05-29T02:42:50;27.60;41.80
44517;DHT22;30223;17.182;-96.766;2023-05-29T02:45:17;27.60;41.90
44517;DHT22;30223;17.182;-96.766;2023-05-29T02:47:44;27.60;42.10
44517;DHT22;30223;17.182;-96.766;2023-05-29T02:50:11;27.60;42.10
44517;DHT22;30223;17.182;-96.766;2023-05-29T02:52:40;27.60;42.30
44517;DHT22;30223;17.182;-96.766;2023-05-29T02:55:08;27.50;42.30
44517;DHT22;30223;17.182;-96.766;2023-05-29T02:57:35;27.50;42.60
44517;DHT22;30223;17.182;-96.766;2023-05-29T03:00:01;27.50;42.60
44517;DHT22;30223;17.182;-96.766;2023-05-29T03:02:32;27.50;42.70
44517;DHT22;30223;17.182;-96.766;2023-05-29T03:04:59;27.50;42.70
44517;DHT22;30223;17.182;-96.766;2023-05-29T03:07:26;27.50;42.80
44517;DHT22;30223;17.182;-96.766;2023-05-29T03:09:54;27.50;42.80
44517;DHT22;30223;17.182;-96.766;2023-05-29T03:12:21;27.50;42.90
44517;DHT22;30223;17.182;-96.766;2023-05-29T03:14:48;27.50;43.10
44517;DHT22;30223;17.182;-96.766;2023-05-29T03:17:14;27.50;43.10
44517;DHT22;30223;17.182;-96.766;2023-05-29T03:19:41;27.50;43.10
44517;DHT22;30223;17.182;-96.766;2023-05-29T03:22:08;27.40;43.20
44517;DHT22;30223;17.182;-96.766;2023-05-29T03:24:35;27.40;43.20
44517;DHT22;30223;17.182;-96.766;2023-05-29T03:27:02;27.40;43.40
44517;DHT22;30223;17.182;-96.766;2023-05-29T03:29:33;27.40;43.40
44517;DHT22;30223;17.182;-96.766;2023-05-29T03:32:00;27.40;43.40
44517;DHT22;30223;17.182;-96.766;2023-05-29T03:34:26;27.40;43.50
44517;DHT22;30223;17.182;-96.766;2023-05-29T03:36:54;27.40;43.60
44517;DHT22;30223;17.182;-96.766;2023-05-29T03:39:20;27.30;43.60
44517;DHT22;30223;17.182;-96.766;2023-05-29T03:41:47;27.40;43.80
44517;DHT22;30223;17.182;-96.766;2023-05-29T03:44:14;27.30;43.90
44517;DHT22;30223;17.182;-96.766;2023-05-29T03:46:41;27.30;43.90
44517;DHT22;30223;17.182;-96.766;2023-05-29T03:49:08;27.30;43.90
44517;DHT22;30223;17.182;-96.766;2023-05-29T03:51:34;27.30;43.90
44517;DHT22;30223;17.182;-96.766;2023-05-29T03:54:02;27.30;44.00
44517;DHT22;30223;17.182;-96.766;2023-05-29T03:56:29;27.20;44.00
44517;DHT22;30223;17.182;-96.766;2023-05-29T03:58:56;27.30;44.10
44517;DHT22;30223;17.182;-96.766;2023-05-29T04:01:23;27.30;44.20
44517;DHT22;30223;17.182;-96.766;2023-05-29T04:03:50;27.20;44.20
44517;DHT22;30223;17.182;-96.766;2023-05-29T04:06:17;27.20;44.20
44517;DHT22;30223;17.182;-96.766;2023-05-29T04:08:44;27.20;44.90
44517;DHT22;30223;17.182;-96.766;2023-05-29T04:11:11;27.20;44.40
44517;DHT22;30223;17.182;-96.766;2023-05-29T04:13:38;27.20;44.40
44517;DHT22;30223;17.182;-96.766;2023-05-29T04:16:05;27.20;44.50
44517;DHT22;30223;17.182;-96.766;2023-05-29T04:18:32;27.20;44.60
44517;DHT22;30223;17.182;-96.766;2023-05-29T04:20:59;27.20;44.60
44517;DHT22;30223;17.182;-96.766;2023-05-29T04:23:26;27.20;44.70
44517;DHT22;30223;17.182;-96.766;2023-05-29T04:25:52;27.10;44.70
44517;DHT22;30223;17.182;-96.766;2023-05-29T04:28:20;27.10;44.70
44517;DHT22;30223;17.182;-96.766;2023-05-29T04:30:50;27.10;44.70
44517;DHT22;30223;17.182;-96.766;2023-05-29T04:33:19;27.10;44.80
44517;DHT22;30223;17.182;-96.766;2023-05-29T04:35:47;27.10;44.90
44517;DHT22;30223;17.182;-96.766;2023-05-29T04:38:14;27.10;45.00
44517;DHT22;30223;17.182;-96.766;2023-05-29T04:40:42;27.10;45.00
44517;DHT22;30223;17.182;-96.766;2023-05-29T04:43:10;27.10;45.00
44517;DHT22;30223;17.182;-96.766;2023-05-29T04:45:37;27.10;45.10
44517;DHT22;30223;17.182;-96.766;2023-05-29T04:48:04;27.10;45.20
44517;DHT22;30223;17.182;-96.766;2023-05-29T04:50:31;27.10;45.20
44517;DHT22;30223;17.182;-96.766;2023-05-29T04:52:59;27.10;45.20
44517;DHT22;30223;17.182;-96.766;2023-05-29T04:55:26;27.00;45.20
44517;DHT22;30223;17.182;-96.766;2023-05-29T04:57:53;27.00;45.30
44517;DHT22;30223;17.182;-96.766;2023-05-29T05:00:20;27.00;45.30
44517;DHT22;30223;17.182;-96.766;2023-05-29T05:02:49;27.00;45.40
44517;DHT22;30223;17.182;-96.766;2023-05-29T05:05:17;27.00;45.40
44517;DHT22;30223;17.182;-96.766;2023-05-29T05:07:43;27.00;45.50
44517;DHT22;30223;17.182;-96.766;2023-05-29T05:10:10;27.00;45.60
44517;DHT22;30223;17.182;-96.766;2023-05-29T05:12:38;27.00;45.50
44517;DHT22;30223;17.182;-96.766;2023-05-29T05:15:05;26.90;45.50
44517;DHT22;30223;17.182;-96.766;2023-05-29T05:17:32;26.90;45.50
44517;DHT22;30223;17.182;-96.766;2023-05-29T05:19:59;26.90;45.60
44517;DHT22;30223;17.182;-96.766;2023-05-29T05:22:25;26.90;45.60
44517;DHT22;30223;17.182;-96.766;2023-05-29T05:24:52;26.90;45.70
44517;DHT22;30223;17.182;-96.766;2023-05-29T05:27:20;26.90;45.70
44517;DHT22;30223;17.182;-96.766;2023-05-29T05:29:47;26.90;45.70
44517;DHT22;30223;17.182;-96.766;2023-05-29T05:32:14;26.90;45.80
44517;DHT22;30223;17.182;-96.766;2023-05-29T05:34:40;26.90;45.80
44517;DHT22;30223;17.182;-96.766;2023-05-29T05:37:07;26.90;45.90
44517;DHT22;30223;17.182;-96.766;2023-05-29T05:39:35;26.80;45.80
44517;DHT22;30223;17.182;-96.766;2023-05-29T05:42:01;26.80;45.90
44517;DHT22;30223;17.182;-96.766;2023-05-29T05:44:28;26.90;46.00
44517;DHT22;30223;17.182;-96.766;2023-05-29T05:46:55;26.80;46.00
44517;DHT22;30223;17.182;-96.766;2023-05-29T05:49:22;26.80;46.00
44517;DHT22;30223;17.182;-96.766;2023-05-29T05:51:48;26.80;46.10
44517;DHT22;30223;17.182;-96.766;2023-05-29T05:54:16;26.80;46.10
44517;DHT22;30223;17.182;-96.766;2023-05-29T05:56:43;26.80;46.10
44517;DHT22;30223;17.182;-96.766;2023-05-29T05:59:10;26.80;46.10
44517;DHT22;30223;17.182;-96.766;2023-05-29T06:01:36;26.80;46.20
44517;DHT22;30223;17.182;-96.766;2023-05-29T06:04:03;26.80;46.20
44517;DHT22;30223;17.182;-96.766;2023-05-29T06:06:30;26.70;46.20
44517;DHT22;30223;17.182;-96.766;2023-05-29T06:08:58;26.70;46.20
44517;DHT22;30223;17.182;-96.766;2023-05-29T06:11:25;26.70;46.30
44517;DHT22;30223;17.182;-96.766;2023-05-29T06:13:54;26.70;46.30
44517;DHT22;30223;17.182;-96.766;2023-05-29T06:16:21;26.70;46.30
44517;DHT22;30223;17.182;-96.766;2023-05-29T06:18:47;26.70;46.40
44517;DHT22;30223;17.182;-96.766;2023-05-29T06:21:14;26.70;46.40
44517;DHT22;30223;17.182;-96.766;2023-05-29T06:23:42;26.70;46.50
44517;DHT22;30223;17.182;-96.766;2023-05-29T06:26:09;26.70;46.50
44517;DHT22;30223;17.182;-96.766;2023-05-29T06:28:37;26.70;46.60
44517;DHT22;30223;17.182;-96.766;2023-05-29T06:31:04;26.70;46.60
44517;DHT22;30223;17.182;-96.766;2023-05-29T06:33:31;26.60;46.60
44517;DHT22;30223;17.182;-96.766;2023-05-29T06:35:58;26.60;46.60
44517;DHT22;30223;17.182;-96.766;2023-05-29T06:38:24;26.60;46.60
44517;DHT22;30223;17.182;-96.766;2023-05-29T06:40:51;26.60;46.60
44517;DHT22;30223;17.182;-96.766;2023-05-29T06:43:18;26.60;46.70
44517;DHT22;30223;17.182;-96.766;2023-05-29T06:45:45;26.60;46.70
44517;DHT22;30223;17.182;-96.766;2023-05-29T06:48:12;26.60;46.70
44517;DHT22;30223;17.182;-96.766;2023-05-29T06:50:39;26.60;46.80
44517;DHT22;30223;17.182;-96.766;2023-05-29T06:53:05;26.50;46.80
44517;DHT22;30223;17.182;-96.766;2023-05-29T06:55:32;26.60;46.90
44517;DHT22;30223;17.182;-96.766;2023-05-29T06:57:59;26.50;46.90
44517;DHT22;30223;17.182;-96.766;2023-05-29T07:00:25;26.60;47.00
44517;DHT22;30223;17.182;-96.766;2023-05-29T07:02:53;26.50;47.00
44517;DHT22;30223;17.182;-96.766;2023-05-29T07:05:20;26.50;47.00
44517;DHT22;30223;17.182;-96.766;2023-05-29T07:07:46;26.50;47.10
44517;DHT22;30223;17.182;-96.766;2023-05-29T07:10:13;26.50;47.40
44517;DHT22;30223;17.182;-96.766;2023-05-29T07:12:40;26.50;47.50
44517;DHT22;30223;17.182;-96.766;2023-05-29T07:15:07;26.50;47.50
44517;DHT22;30223;17.182;-96.766;2023-05-29T07:17:34;26.50;47.30
44517;DHT22;30223;17.182;-96.766;2023-05-29T07:20:01;26.50;47.20
44517;DHT22;30223;17.182;-96.766;2023-05-29T07:22:28;26.40;47.20
44517;DHT22;30223;17.182;-96.766;2023-05-29T07:24:54;26.50;47.30
44517;DHT22;30223;17.182;-96.766;2023-05-29T07:27:21;26.40;47.60
44517;DHT22;30223;17.182;-96.766;2023-05-29T07:29:48;26.40;47.40
44517;DHT22;30223;17.182;-96.766;2023-05-29T07:32:15;26.40;47.50
44517;DHT22;30223;17.182;-96.766;2023-05-29T07:34:41;26.40;47.50
44517;DHT22;30223;17.182;-96.766;2023-05-29T07:37:08;26.40;47.50
44517;DHT22;30223;17.182;-96.766;2023-05-29T07:39:35;26.40;47.60
44517;DHT22;30223;17.182;-96.766;2023-05-29T07:42:02;26.40;47.70
44517;DHT22;30223;17.182;-96.766;2023-05-29T07:44:29;26.40;47.70
44517;DHT22;30223;17.182;-96.766;2023-05-29T07:46:56;26.40;47.80
44517;DHT22;30223;17.182;-96.766;2023-05-29T07:49:23;26.40;47.80
44517;DHT22;30223;17.182;-96.766;2023-05-29T07:51:50;26.40;47.70
44517;DHT22;30223;17.182;-96.766;2023-05-29T07:54:17;26.40;47.80
44517;DHT22;30223;17.182;-96.766;2023-05-29T07:56:46;26.30;47.70
44517;DHT22;30223;17.182;-96.766;2023-05-29T07:59:13;26.40;47.80
44517;DHT22;30223;17.182;-96.766;2023-05-29T08:01:40;26.30;47.70
44517;DHT22;30223;17.182;-96.766;2023-05-29T08:04:07;26.30;47.80
44517;DHT22;30223;17.182;-96.766;2023-05-29T08:06:34;26.30;48.00
44517;DHT22;30223;17.182;-96.766;2023-05-29T08:09:01;26.30;48.10
44517;DHT22;30223;17.182;-96.766;2023-05-29T08:11:27;26.30;48.00
44517;DHT22;30223;17.182;-96.766;2023-05-29T08:13:54;26.30;48.20
44517;DHT22;30223;17.182;-96.766;2023-05-29T08:16:21;26.30;48.30
44517;DHT22;30223;17.182;-96.766;2023-05-29T08:18:48;26.30;48.20
44517;DHT22;30223;17.182;-96.766;2023-05-29T08:21:15;26.30;48.30
44517;DHT22;30223;17.182;-96.766;2023-05-29T08:23:41;26.20;48.30
44517;DHT22;30223;17.182;-96.766;2023-05-29T08:26:08;26.20;48.40
44517;DHT22;30223;17.182;-96.766;2023-05-29T08:28:35;26.20;49.00
44517;DHT22;30223;17.182;-96.766;2023-05-29T08:31:02;26.20;48.30
44517;DHT22;30223;17.182;-96.766;2023-05-29T08:33:28;26.20;48.50
44517;DHT22;30223;17.182;-96.766;2023-05-29T08:35:59;26.20;48.50
44517;DHT22;30223;17.182;-96.766;2023-05-29T08:38:26;26.20;48.40
44517;DHT22;30223;17.182;-96.766;2023-05-29T08:40:54;26.20;48.30
44517;DHT22;30223;17.182;-96.766;2023-05-29T08:43:23;26.20;48.30
44517;DHT22;30223;17.182;-96.766;2023-05-29T08:45:54;26.20;48.60
44517;DHT22;30223;17.182;-96.766;2023-05-29T08:48:23;26.20;48.60
44517;DHT22;30223;17.182;-96.766;2023-05-29T08:50:54;26.20;48.60
44517;DHT22;30223;17.182;-96.766;2023-05-29T08:53:22;26.10;48.60
44517;DHT22;30223;17.182;-96.766;2023-05-29T08:55:49;26.10;48.60
44517;DHT22;30223;17.182;-96.766;2023-05-29T08:58:22;26.10;48.70
44517;DHT22;30223;17.182;-96.766;2023-05-29T09:00:50;26.10;48.80
44517;DHT22;30223;17.182;-96.766;2023-05-29T09:03:17;26.10;48.90
44517;DHT22;30223;17.182;-96.766;2023-05-29T09:05:46;26.10;48.90
44517;DHT22;30223;17.182;-96.766;2023-05-29T09:08:13;26.10;49.00
44517;DHT22;30223;17.182;-96.766;2023-05-29T09:10:45;26.10;49.00
44517;DHT22;30223;17.182;-96.766;2023-05-29T09:13:13;26.10;49.00
44517;DHT22;30223;17.182;-96.766;2023-05-29T09:15:40;26.00;49.00
44517;DHT22;30223;17.182;-96.766;2023-05-29T09:18:10;26.00;48.90
44517;DHT22;30223;17.182;-96.766;2023-05-29T09:20:37;26.00;49.10
44517;DHT22;30223;17.182;-96.766;2023-05-29T09:23:07;26.00;49.10
44517;DHT22;30223;17.182;-96.766;2023-05-29T09:25:42;26.00;49.10
44517;DHT22;30223;17.182;-96.766;2023-05-29T09:28:09;26.00;49.20
44517;DHT22;30223;17.182;-96.766;2023-05-29T09:33:05;26.00;49.20
44517;DHT22;30223;17.182;-96.766;2023-05-29T09:35:37;25.90;49.30
44517;DHT22;30223;17.182;-96.766;2023-05-29T09:38:06;25.90;49.20
44517;DHT22;30223;17.182;-96.766;2023-05-29T09:40:38;25.90;49.20
44517;DHT22;30223;17.182;-96.766;2023-05-29T09:43:25;25.90;49.40
44517;DHT22;30223;17.182;-96.766;2023-05-29T09:45:52;25.90;49.40
44517;DHT22;30223;17.182;-96.766;2023-05-29T09:48:23;25.90;49.40
44517;DHT22;30223;17.182;-96.766;2023-05-29T09:50:50;25.90;49.40
44517;DHT22;30223;17.182;-96.766;2023-05-29T09:53:22;25.90;49.40
44517;DHT22;30223;17.182;-96.766;2023-05-29T09:55:53;25.90;49.50
44517;DHT22;30223;17.182;-96.766;2023-05-29T09:58:21;25.90;49.50
44517;DHT22;30223;17.182;-96.766;2023-05-29T10:00:49;25.90;49.50
44517;DHT22;30223;17.182;-96.766;2023-05-29T10:03:17;25.80;49.40
44517;DHT22;30223;17.182;-96.766;2023-05-29T10:05:50;25.80;49.50
44517;DHT22;30223;17.182;-96.766;2023-05-29T10:08:20;25.80;49.50
44517;DHT22;30223;17.182;-96.766;2023-05-29T10:10:54;25.80;49.60
44517;DHT22;30223;17.182;-96.766;2023-05-29T10:13:22;25.80;49.60
44517;DHT22;30223;17.182;-96.766;2023-05-29T10:15:53;25.80;49.60
44517;DHT22;30223;17.182;-96.766;2023-05-29T10:18:23;25.80;49.70
44517;DHT22;30223;17.182;-96.766;2023-05-29T10:20:50;25.80;49.60
44517;DHT22;30223;17.182;-96.766;2023-05-29T10:23:23;25.80;49.70
44517;DHT22;30223;17.182;-96.766;2023-05-29T10:25:58;25.80;49.80
44517;DHT22;30223;17.182;-96.766;2023-05-29T10:28:28;25.70;49.60
44517;DHT22;30223;17.182;-96.766;2023-05-29T10:31:05;25.70;49.70
44517;DHT22;30223;17.182;-96.766;2023-05-29T10:36:48;25.70;49.70
44517;DHT22;30223;17.182;-96.766;2023-05-29T10:39:16;25.70;49.80
44517;DHT22;30223;17.182;-96.766;2023-05-29T10:41:43;25.70;49.80
44517;DHT22;30223;17.182;-96.766;2023-05-29T10:47:04;25.70;49.80
44517;DHT22;30223;17.182;-96.766;2023-05-29T10:49:31;25.70;50.00
44517;DHT22;30223;17.182;-96.766;2023-05-29T10:51:59;25.70;50.00
44517;DHT22;30223;17.182;-96.766;2023-05-29T10:54:26;25.70;50.00
44517;DHT22;30223;17.182;-96.766;2023-05-29T10:57:02;25.70;50.70
44517;DHT22;30223;17.182;-96.766;2023-05-29T10:59:29;25.60;50.00
44517;DHT22;30223;17.182;-96.766;2023-05-29T11:02:04;25.60;50.00
44517;DHT22;30223;17.182;-96.766;2023-05-29T11:04:33;25.60;50.20
44517;DHT22;30223;17.182;-96.766;2023-05-29T11:07:00;25.60;50.00
44517;DHT22;30223;17.182;-96.766;2023-05-29T11:09:38;25.60;50.20
44517;DHT22;30223;17.182;-96.766;2023-05-29T11:12:13;25.60;50.00
44517;DHT22;30223;17.182;-96.766;2023-05-29T11:15:00;25.60;50.20
44517;DHT22;30223;17.182;-96.766;2023-05-29T11:20:03;25.60;50.20
44517;DHT22;30223;17.182;-96.766;2023-05-29T11:25:27;25.50;50.10
44517;DHT22;30223;17.182;-96.766;2023-05-29T11:27:54;25.50;50.20
44517;DHT22;30223;17.182;-96.766;2023-05-29T11:30:21;25.50;50.20
44517;DHT22;30223;17.182;-96.766;2023-05-29T11:32:48;25.50;50.20
44517;DHT22;30223;17.182;-96.766;2023-05-29T11:35:21;25.50;50.00
44517;DHT22;30223;17.182;-96.766;2023-05-29T11:37:48;25.50;50.10
44517;DHT22;30223;17.182;-96.766;2023-05-29T11:40:16;25.50;50.20
44517;DHT22;30223;17.182;-96.766;2023-05-29T11:42:45;25.50;50.20
44517;DHT22;30223;17.182;-96.766;2023-05-29T11:45:17;25.50;50.20
44517;DHT22;30223;17.182;-96.766;2023-05-29T11:47:53;25.50;50.30
44517;DHT22;30223;17.182;-96.766;2023-05-29T11:50:24;25.50;50.20
44517;DHT22;30223;17.182;-96.766;2023-05-29T11:52:52;25.40;50.20
44517;DHT22;30223;17.182;-96.766;2023-05-29T11:55:20;25.40;50.20
44517;DHT22;30223;17.182;-96.766;2023-05-29T11:57:52;25.40;50.30
44517;DHT22;30223;17.182;-96.766;2023-05-29T12:00:22;25.40;50.30
44517;DHT22;30223;17.182;-96.766;2023-05-29T12:02:49;25.30;50.20
44517;DHT22;30223;17.182;-96.766;2023-05-29T12:05:16;25.40;50.30
44517;DHT22;30223;17.182;-96.766;2023-05-29T12:07:54;25.40;50.30
44517;DHT22;30223;17.182;-96.766;2023-05-29T12:10:27;25.40;50.40
44517;DHT22;30223;17.182;-96.766;2023-05-29T12:12:56;25.40;50.40
44517;DHT22;30223;17.182;-96.766;2023-05-29T12:15:23;25.30;50.30
44517;DHT22;30223;17.182;-96.766;2023-05-29T12:17:50;25.30;50.20
44517;DHT22;30223;17.182;-96.766;2023-05-29T12:20:18;25.30;50.30
44517;DHT22;30223;17.182;-96.766;2023-05-29T12:22:46;25.30;50.30
44517;DHT22;30223;17.182;-96.766;2023-05-29T12:25:17;25.30;50.40
44517;DHT22;30223;17.182;-96.766;2023-05-29T12:27:47;25.30;50.30
44517;DHT22;30223;17.182;-96.766;2023-05-29T12:32:46;25.30;50.40
44517;DHT22;30223;17.182;-96.766;2023-05-29T12:40:22;25.30;50.30
44517;DHT22;30223;17.182;-96.766;2023-05-29T12:42:59;25.30;50.50
44517;DHT22;30223;17.182;-96.766;2023-05-29T12:45:30;25.30;50.50
44517;DHT22;30223;17.182;-96.766;2023-05-29T12:48:01;25.30;50.50
44517;DHT22;30223;17.182;-96.766;2023-05-29T12:50:36;25.30;52.30
44517;DHT22;30223;17.182;-96.766;2023-05-29T12:53:07;25.30;53.00
44517;DHT22;30223;17.182;-96.766;2023-05-29T12:55:34;25.30;53.10
44517;DHT22;30223;17.182;-96.766;2023-05-29T12:58:14;25.30;52.80
44517;DHT22;30223;17.182;-96.766;2023-05-29T13:00:46;25.30;53.00
44517;DHT22;30223;17.182;-96.766;2023-05-29T13:03:13;25.30;53.10
44517;DHT22;30223;17.182;-96.766;2023-05-29T13:05:41;25.30;52.90
44517;DHT22;30223;17.182;-96.766;2023-05-29T13:08:08;25.30;52.80
44517;DHT22;30223;17.182;-96.766;2023-05-29T13:10:34;25.30;52.70
44517;DHT22;30223;17.182;-96.766;2023-05-29T13:13:01;25.30;52.70
44517;DHT22;30223;17.182;-96.766;2023-05-29T13:15:28;25.30;52.60
44517;DHT22;30223;17.182;-96.766;2023-05-29T13:17:55;25.30;52.50
44517;DHT22;30223;17.182;-96.766;2023-05-29T13:20:22;25.30;52.50
44517;DHT22;30223;17.182;-96.766;2023-05-29T13:22:49;25.20;52.30
44517;DHT22;30223;17.182;-96.766;2023-05-29T13:25:17;25.20;52.20
44517;DHT22;30223;17.182;-96.766;2023-05-29T13:27:47;25.20;52.10
44517;DHT22;30223;17.182;-96.766;2023-05-29T13:30:15;25.20;52.10
44517;DHT22;30223;17.182;-96.766;2023-05-29T13:32:42;25.20;52.10
44517;DHT22;30223;17.182;-96.766;2023-05-29T13:35:09;25.20;52.10
44517;DHT22;30223;17.182;-96.766;2023-05-29T13:37:37;25.20;52.20
44517;DHT22;30223;17.182;-96.766;2023-05-29T13:40:05;25.20;52.10
44517;DHT22;30223;17.182;-96.766;2023-05-29T13:42:32;25.20;52.10
44517;DHT22;30223;17.182;-96.766;2023-05-29T13:44:59;25.20;52.10
44517;DHT22;30223;17.182;-96.766;2023-05-29T13:47:26;25.20;52.00
44517;DHT22;30223;17.182;-96.766;2023-05-29T13:49:58;25.10;51.90
44517;DHT22;30223;17.182;-96.766;2023-05-29T13:52:26;25.10;51.80
44517;DHT22;30223;17.182;-96.766;2023-05-29T13:54:53;25.10;51.90
44517;DHT22;30223;17.182;-96.766;2023-05-29T13:57:19;25.10;51.80
44517;DHT22;30223;17.182;-96.766;2023-05-29T13:59:46;25.10;51.80
44517;DHT22;30223;17.182;-96.766;2023-05-29T14:02:13;25.20;51.80
44517;DHT22;30223;17.182;-96.766;2023-05-29T14:04:40;25.10;51.70
44517;DHT22;30223;17.182;-96.766;2023-05-29T14:07:08;25.10;51.70
44517;DHT22;30223;17.182;-96.766;2023-05-29T14:09:35;25.10;51.60
44517;DHT22;30223;17.182;-96.766;2023-05-29T14:12:02;25.10;51.60
44517;DHT22;30223;17.182;-96.766;2023-05-29T14:14:28;25.10;51.70
44517;DHT22;30223;17.182;-96.766;2023-05-29T14:16:55;25.10;51.80
44517;DHT22;30223;17.182;-96.766;2023-05-29T14:19:23;25.10;51.70
44517;DHT22;30223;17.182;-96.766;2023-05-29T14:21:50;25.10;51.80
44517;DHT22;30223;17.182;-96.766;2023-05-29T14:24:16;25.10;51.70
44517;DHT22;30223;17.182;-96.766;2023-05-29T14:26:44;25.10;51.70
44517;DHT22;30223;17.182;-96.766;2023-05-29T14:29:12;25.10;51.70
44517;DHT22;30223;17.182;-96.766;2023-05-29T14:31:43;25.10;51.70
44517;DHT22;30223;17.182;-96.766;2023-05-29T14:34:11;25.10;51.70
44517;DHT22;30223;17.182;-96.766;2023-05-29T14:36:38;25.10;51.70
44517;DHT22;30223;17.182;-96.766;2023-05-29T14:39:06;25.10;51.70
44517;DHT22;30223;17.182;-96.766;2023-05-29T14:41:33;25.10;51.80
44517;DHT22;30223;17.182;-96.766;2023-05-29T14:44:01;25.10;51.80
44517;DHT22;30223;17.182;-96.766;2023-05-29T14:46:28;25.10;51.70
44517;DHT22;30223;17.182;-96.766;2023-05-29T14:49:00;25.10;51.70
44517;DHT22;30223;17.182;-96.766;2023-05-29T14:51:27;25.10;51.70
44517;DHT22;30223;17.182;-96.766;2023-05-29T14:53:54;25.10;51.70
44517;DHT22;30223;17.182;-96.766;2023-05-29T14:56:22;25.10;51.70
44517;DHT22;30223;17.182;-96.766;2023-05-29T14:58:48;25.10;51.80
44517;DHT22;30223;17.182;-96.766;2023-05-29T15:01:16;25.10;51.80
44517;DHT22;30223;17.182;-96.766;2023-05-29T15:03:43;25.10;51.80
44517;DHT22;30223;17.182;-96.766;2023-05-29T15:06:11;25.10;51.90
44517;DHT22;30223;17.182;-96.766;2023-05-29T15:08:38;25.10;51.80
44517;DHT22;30223;17.182;-96.766;2023-05-29T15:11:06;25.10;52.00
44517;DHT22;30223;17.182;-96.766;2023-05-29T15:13:33;25.10;52.00
44517;DHT22;30223;17.182;-96.766;2023-05-29T15:16:00;25.10;52.00
44517;DHT22;30223;17.182;-96.766;2023-05-29T15:18:29;25.10;52.10
44517;DHT22;30223;17.182;-96.766;2023-05-29T15:20:56;25.10;52.10
44517;DHT22;30223;17.182;-96.766;2023-05-29T15:23:25;25.10;52.10
44517;DHT22;30223;17.182;-96.766;2023-05-29T15:25:52;25.10;52.10
44517;DHT22;30223;17.182;-96.766;2023-05-29T15:28:19;25.10;52.10
44517;DHT22;30223;17.182;-96.766;2023-05-29T15:30:46;25.10;52.10
44517;DHT22;30223;17.182;-96.766;2023-05-29T15:33:13;25.10;52.00
44517;DHT22;30223;17.182;-96.766;2023-05-29T15:35:40;25.10;52.00
44517;DHT22;30223;17.182;-96.766;2023-05-29T15:38:09;25.20;52.00